Archival Weather

Granbury Rgnl

Granbury, Texas (KGDJ)

Report from: Monday, January 29, 2024 6:35 PM UTC
Current time: Tuesday, June 18, 2024 12:42 PM UTC

Current weather – Weather history – Daily summaries
Weather forecast

Temperature20.0°C (68.0°F)
Dew point3.5°C (38.3°F)
Winds 9 kts (4.6 m/s, 10.4 mph) Northwest (320°)
Wind gusts 14 kts (7.2 m/s, 16.1 mph)
Visibility10 mi. (16.1 km)
Clouds Sky clear
Altimeter30.29 in.Hg (1026 mB)
Relative humidity34 %
Density altitude285 ft. (87 m)
Remarks Fully automated report
Automated weather observing station with precipitation discriminator
Flight conditions Visual Meteorological Conditions
Raw dataKGDJ 291835Z AUTO 32009G14KT 10SM CLR 20/04 A3029 RMK AO2 T02000035
An error has occurred. This application may no longer respond until reloaded. Reload 🗙